Time;durP1;ratioP1;P1;durP2;ratioP2;P2;SDS_P1;SDS_P2;PMS_P1;PMS_P2;Temp;Humidity;BMP_temperature;BMP_pressure;BME280_temperature;BME280_humidity;BME280_pressure;Samples;Min_cycle;Max_cycle;Signal;HPM_P1;HPM_P2
2022/06/05 00:02:33;;;;;;;;;;;22.20;76.50;;;;;;4919491;29;21133;-79
2022/06/05 00:05:18;;;;;;;;;;;22.20;76.30;;;;;;4921322;29;19988;-84
2022/06/05 00:07:54;;;;;;;;;;;22.20;76.10;;;;;;4907279;29;20076;-79
2022/06/05 00:10:30;;;;;;;;;;;22.20;76.10;;;;;;4921331;29;19927;-83
2022/06/05 00:13:12;;;;;;;;;;;22.20;76.30;;;;;;4916382;29;19974;-84
2022/06/05 00:15:39;;;;;;;;;;;22.20;76.40;;;;;;4930609;29;20383;-89
2022/06/05 00:18:06;;;;;;;;;;;22.20;76.50;;;;;;4919169;29;19927;-80
2022/06/05 00:20:33;;;;;;;;;;;22.10;76.60;;;;;;4918361;29;20403;-85
2022/06/05 00:23:00;;;;;;;;;;;22.10;76.70;;;;;;4919960;29;20287;-83
2022/06/05 00:25:33;;;;;;;;;;;22.10;76.70;;;;;;4918793;29;20356;-88
2022/06/05 00:28:12;;;;;;;;;;;22.10;76.80;;;;;;4931490;29;19935;-81
2022/06/05 00:30:51;;;;;;;;;;;22.10;76.90;;;;;;4917746;29;20336;-87
2022/06/05 00:33:33;;;;;;;;;;;22.00;77.00;;;;;;4933783;29;20478;-88
2022/06/05 00:36:19;;;;;;;;;;;22.00;77.00;;;;;;4931955;29;20381;-83
2022/06/05 00:38:57;;;;;;;;;;;22.00;77.10;;;;;;4934545;29;20451;-80
2022/06/05 00:41:32;;;;;;;;;;;22.00;77.20;;;;;;4920952;29;19927;-84
2022/06/05 00:44:02;;;;;;;;;;;22.00;77.20;;;;;;4933357;29;19927;-84
2022/06/05 00:46:28;;;;;;;;;;;22.00;77.20;;;;;;4921558;29;19931;-80
2022/06/05 00:48:55;;;;;;;;;;;22.00;77.00;;;;;;4917390;29;19983;-84
2022/06/05 00:51:22;;;;;;;;;;;22.00;77.20;;;;;;4918081;29;19928;-89
2022/06/05 00:53:50;;;;;;;;;;;22.00;77.20;;;;;;4921388;29;19986;-80
2022/06/05 00:56:17;;;;;;;;;;;22.00;77.40;;;;;;4914566;29;19931;-82
2022/06/05 00:58:44;;;;;;;;;;;21.90;77.50;;;;;;4931198;29;19927;-80
2022/06/05 01:01:12;;;;;;;;;;;21.90;77.60;;;;;;4933812;29;19950;-80
2022/06/05 01:03:38;;;;;;;;;;;21.90;77.90;;;;;;4925070;29;19938;-81
2022/06/05 01:06:06;;;;;;;;;;;21.90;77.80;;;;;;4936960;29;19931;-80
2022/06/05 01:08:33;;;;;;;;;;;21.90;77.90;;;;;;4918874;29;19982;-85
2022/06/05 01:11:22;;;;;;;;;;;21.80;77.80;;;;;;4928181;29;20010;-79
2022/06/05 01:14:16;;;;;;;;;;;21.80;77.70;;;;;;4924057;29;19962;-79
2022/06/05 01:16:48;;;;;;;;;;;21.80;77.60;;;;;;4920967;29;20292;-80
2022/06/05 01:19:27;;;;;;;;;;;21.80;77.60;;;;;;4918909;29;19928;-84
2022/06/05 01:22:01;;;;;;;;;;;21.80;77.60;;;;;;4930571;29;19934;-84
2022/06/05 01:24:46;;;;;;;;;;;21.80;77.80;;;;;;4921233;29;19927;-80
2022/06/05 01:27:17;;;;;;;;;;;21.80;77.70;;;;;;4933633;29;20439;-87
2022/06/05 01:29:48;;;;;;;;;;;21.70;78.30;;;;;;4920051;29;19927;-82
2022/06/05 01:32:24;;;;;;;;;;;21.70;78.30;;;;;;4922782;29;20336;-80
2022/06/05 01:34:53;;;;;;;;;;;21.70;78.40;;;;;;4931534;29;19931;-80
2022/06/05 01:37:23;;;;;;;;;;;21.70;78.40;;;;;;4933853;29;19926;-80
2022/06/05 01:39:59;;;;;;;;;;;21.70;78.40;;;;;;4925229;29;20006;-80
2022/06/05 01:42:28;;;;;;;;;;;21.60;78.40;;;;;;4926496;29;19978;-80
2022/06/05 01:44:57;;;;;;;;;;;21.70;78.60;;;;;;4918833;29;19927;-80
2022/06/05 01:47:27;;;;;;;;;;;21.60;78.70;;;;;;4917672;29;19959;-80
2022/06/05 01:49:56;;;;;;;;;;;21.60;79.10;;;;;;4915117;29;19931;-79
2022/06/05 01:52:28;;;;;;;;;;;21.50;79.50;;;;;;4914942;29;20383;-79
2022/06/05 01:55:03;;;;;;;;;;;21.50;79.70;;;;;;4917891;29;20396;-83
2022/06/05 01:57:33;;;;;;;;;;;21.50;80.00;;;;;;4924826;29;19927;-79
2022/06/05 02:00:06;;;;;;;;;;;21.50;80.10;;;;;;4923237;29;20319;-79
2022/06/05 02:02:35;;;;;;;;;;;21.50;80.00;;;;;;4918195;29;20277;-84
2022/06/05 02:05:08;;;;;;;;;;;21.40;80.00;;;;;;4914826;29;20002;-87
2022/06/05 02:07:39;;;;;;;;;;;21.40;80.10;;;;;;4940094;29;19927;-83
2022/06/05 02:10:09;;;;;;;;;;;21.40;80.30;;;;;;4925926;29;20280;-80
2022/06/05 02:12:36;;;;;;;;;;;21.40;80.50;;;;;;4923444;29;19931;-84
2022/06/05 02:15:04;;;;;;;;;;;21.30;80.70;;;;;;4927688;29;19926;-81
2022/06/05 02:17:31;;;;;;;;;;;21.30;81.00;;;;;;4918597;29;19975;-80
2022/06/05 02:19:59;;;;;;;;;;;21.20;81.50;;;;;;4929084;29;20348;-88
2022/06/05 02:22:28;;;;;;;;;;;21.20;81.70;;;;;;4931653;29;19927;-80
2022/06/05 02:24:55;;;;;;;;;;;21.20;82.10;;;;;;4925186;29;19975;-80
2022/06/05 02:27:23;;;;;;;;;;;21.10;82.40;;;;;;4928011;29;19975;-83
2022/06/05 02:29:50;;;;;;;;;;;21.10;83.00;;;;;;4919690;29;19930;-88
2022/06/05 02:32:17;;;;;;;;;;;21.00;83.10;;;;;;4921912;29;19927;-88
2022/06/05 02:34:54;;;;;;;;;;;21.00;83.60;;;;;;4936911;29;20040;-84
2022/06/05 02:37:39;;;;;;;;;;;20.90;85.80;;;;;;4935809;29;19931;-80
2022/06/05 02:40:12;;;;;;;;;;;20.90;85.20;;;;;;4933169;29;20424;-79
2022/06/05 02:42:44;;;;;;;;;;;20.90;84.60;;;;;;4933987;29;19974;-78
2022/06/05 02:45:23;;;;;;;;;;;20.90;84.40;;;;;;4914418;29;19979;-79
2022/06/05 02:48:05;;;;;;;;;;;20.90;84.30;;;;;;4941439;29;19931;-83
2022/06/05 02:50:38;;;;;;;;;;;20.90;84.10;;;;;;4926849;29;20028;-83
2022/06/05 02:53:07;;;;;;;;;;;20.90;83.90;;;;;;4922392;29;19958;-79
2022/06/05 02:55:34;;;;;;;;;;;20.90;83.90;;;;;;4924347;29;20384;-81
2022/06/05 02:58:01;;;;;;;;;;;20.90;83.80;;;;;;4920882;29;19979;-88
2022/06/05 03:00:29;;;;;;;;;;;20.90;83.70;;;;;;4925996;29;20441;-79
2022/06/05 03:05:41;;;;;;;;;;;20.90;83.60;;;;;;4918094;29;20009;-88
2022/06/05 03:08:10;;;;;;;;;;;21.00;83.60;;;;;;4916663;29;19966;-80
2022/06/05 03:10:37;;;;;;;;;;;21.00;83.40;;;;;;4917383;29;20739;-79
2022/06/05 03:13:04;;;;;;;;;;;21.00;83.40;;;;;;4906227;29;19979;-83
2022/06/05 03:15:32;;;;;;;;;;;21.00;83.40;;;;;;4911900;29;19966;-79
2022/06/05 03:17:59;;;;;;;;;;;21.00;84.10;;;;;;4921948;29;19927;-83
2022/06/05 03:20:26;;;;;;;;;;;20.90;84.90;;;;;;4918451;29;19973;-80
2022/06/05 03:22:54;;;;;;;;;;;20.80;85.50;;;;;;4920995;29;20311;-79
2022/06/05 03:25:22;;;;;;;;;;;20.70;85.70;;;;;;4915240;29;19968;-79
2022/06/05 03:27:49;;;;;;;;;;;20.70;85.90;;;;;;4939337;29;19931;-87
2022/06/05 03:30:16;;;;;;;;;;;20.70;85.90;;;;;;4928307;29;19927;-88
2022/06/05 03:32:44;;;;;;;;;;;20.60;85.80;;;;;;4917949;29;20399;-87
2022/06/05 03:35:12;;;;;;;;;;;20.60;85.70;;;;;;4905983;29;19987;-80
2022/06/05 03:37:38;;;;;;;;;;;20.60;85.70;;;;;;4918489;29;19927;-82
2022/06/05 03:40:11;;;;;;;;;;;20.50;85.60;;;;;;4926853;29;19970;-80
2022/06/05 03:42:38;;;;;;;;;;;20.50;85.80;;;;;;4920165;29;20387;-79
2022/06/05 03:45:05;;;;;;;;;;;20.50;86.20;;;;;;4920124;29;19927;-80
2022/06/05 03:47:32;;;;;;;;;;;20.50;86.30;;;;;;4917290;29;19995;-86
2022/06/05 03:49:59;;;;;;;;;;;20.40;86.00;;;;;;4918789;29;19927;-83
2022/06/05 03:52:26;;;;;;;;;;;20.40;87.40;;;;;;4917150;29;19978;-79
2022/06/05 03:54:52;;;;;;;;;;;20.30;86.90;;;;;;4917141;29;19935;-80
2022/06/05 03:57:19;;;;;;;;;;;20.30;86.80;;;;;;4922240;29;19927;-80
2022/06/05 03:59:48;;;;;;;;;;;20.30;86.90;;;;;;4920532;29;19931;-83
2022/06/05 04:02:15;;;;;;;;;;;20.30;86.80;;;;;;4919909;29;19928;-83
2022/06/05 04:04:42;;;;;;;;;;;20.30;86.70;;;;;;4916729;29;19931;-85
2022/06/05 04:07:09;;;;;;;;;;;20.30;86.60;;;;;;4927475;29;19927;-86
2022/06/05 04:09:35;;;;;;;;;;;20.30;86.60;;;;;;4921290;29;20384;-79
2022/06/05 04:12:02;;;;;;;;;;;20.20;86.70;;;;;;4916620;29;19971;-86
2022/06/05 04:14:29;;;;;;;;;;;20.20;86.90;;;;;;4916965;29;19985;-83
2022/06/05 04:16:56;;;;;;;;;;;20.20;87.10;;;;;;4913570;29;20296;-80
2022/06/05 04:19:22;;;;;;;;;;;20.20;87.20;;;;;;4928315;29;20392;-83
2022/06/05 04:21:49;;;;;;;;;;;20.20;87.20;;;;;;4934069;29;19927;-83
2022/06/05 04:24:16;;;;;;;;;;;20.10;87.10;;;;;;4925413;29;19927;-79
2022/06/05 04:26:43;;;;;;;;;;;20.20;87.30;;;;;;4928069;29;20015;-87
2022/06/05 04:29:11;;;;;;;;;;;20.10;87.40;;;;;;4916817;29;19986;-79
2022/06/05 04:31:41;;;;;;;;;;;20.10;87.50;;;;;;4917014;29;19982;-83
2022/06/05 04:34:09;;;;;;;;;;;20.20;87.70;;;;;;4915770;29;19931;-80
2022/06/05 04:36:36;;;;;;;;;;;20.20;87.90;;;;;;4914317;29;19979;-87
2022/06/05 04:39:03;;;;;;;;;;;20.10;87.80;;;;;;4914695;29;19938;-79
2022/06/05 04:41:30;;;;;;;;;;;20.10;88.00;;;;;;4915199;29;20380;-80
2022/06/05 04:43:57;;;;;;;;;;;20.20;88.00;;;;;;4916852;29;19974;-79
2022/06/05 04:46:25;;;;;;;;;;;20.10;88.00;;;;;;4920352;29;19927;-80
2022/06/05 04:48:52;;;;;;;;;;;20.20;88.40;;;;;;4929151;29;19931;-82
2022/06/05 04:51:19;;;;;;;;;;;20.10;88.60;;;;;;4920255;29;20459;-88
2022/06/05 04:53:47;;;;;;;;;;;20.10;88.70;;;;;;4921639;29;19956;-84
2022/06/05 04:56:15;;;;;;;;;;;20.10;89.30;;;;;;4920296;29;19927;-79
2022/06/05 04:58:42;;;;;;;;;;;20.10;89.10;;;;;;4934074;29;19931;-82
2022/06/05 05:01:13;;;;;;;;;;;20.10;89.50;;;;;;4935907;29;19926;-80
2022/06/05 05:03:40;;;;;;;;;;;20.20;89.30;;;;;;4918330;29;20329;-83
2022/06/05 05:06:08;;;;;;;;;;;20.20;89.30;;;;;;4914976;29;19935;-84
2022/06/05 05:08:35;;;;;;;;;;;20.30;89.10;;;;;;4929184;29;19931;-80
2022/06/05 05:11:02;;;;;;;;;;;20.40;89.10;;;;;;4922882;29;19935;-81
2022/06/05 05:13:29;;;;;;;;;;;20.50;89.10;;;;;;4919424;29;19982;-83
2022/06/05 05:15:56;;;;;;;;;;;20.50;89.00;;;;;;4921202;29;19927;-79
2022/06/05 05:18:23;;;;;;;;;;;20.60;88.90;;;;;;4919370;29;19931;-83
2022/06/05 05:20:50;;;;;;;;;;;20.70;88.80;;;;;;4918456;29;19955;-83
2022/06/05 05:23:19;;;;;;;;;;;20.80;88.50;;;;;;4921875;29;19931;-82
2022/06/05 05:25:46;;;;;;;;;;;20.90;88.40;;;;;;4920813;29;19986;-79
2022/06/05 05:28:13;;;;;;;;;;;21.00;88.50;;;;;;4921057;29;20379;-86
2022/06/05 05:30:44;;;;;;;;;;;21.10;88.10;;;;;;4916167;29;19927;-78
2022/06/05 05:33:12;;;;;;;;;;;21.20;87.80;;;;;;4920527;29;19935;-79
2022/06/05 05:35:39;;;;;;;;;;;21.20;87.80;;;;;;4917566;29;19965;-80
2022/06/05 05:38:06;;;;;;;;;;;21.30;87.60;;;;;;4910808;29;19927;-80
2022/06/05 05:43:19;;;;;;;;;;;21.50;87.20;;;;;;4926273;29;20017;-83
2022/06/05 05:45:46;;;;;;;;;;;21.60;86.90;;;;;;4923845;29;20009;-86
2022/06/05 05:48:13;;;;;;;;;;;21.70;86.70;;;;;;4921039;29;20269;-86
2022/06/05 05:50:44;;;;;;;;;;;21.80;86.70;;;;;;4937196;29;19987;-79
2022/06/05 05:53:11;;;;;;;;;;;21.90;86.00;;;;;;4928412;29;19990;-82
2022/06/05 05:55:38;;;;;;;;;;;22.00;85.80;;;;;;4917670;29;19935;-83
2022/06/05 05:58:04;;;;;;;;;;;22.20;85.40;;;;;;4930272;29;19974;-83
2022/06/05 06:00:33;;;;;;;;;;;22.30;84.90;;;;;;4921773;29;19931;-82
2022/06/05 06:03:00;;;;;;;;;;;22.40;84.40;;;;;;4921245;29;19931;-85
2022/06/05 06:05:34;;;;;;;;;;;22.40;84.00;;;;;;4914955;29;19927;-79
2022/06/05 06:08:01;;;;;;;;;;;22.50;83.90;;;;;;4918590;29;19927;-79
2022/06/05 06:10:27;;;;;;;;;;;22.50;83.70;;;;;;4922862;29;19958;-80
2022/06/05 06:12:54;;;;;;;;;;;22.60;83.60;;;;;;4918667;29;19979;-85
2022/06/05 06:15:21;;;;;;;;;;;22.70;83.40;;;;;;4924627;29;20137;-85
2022/06/05 06:17:47;;;;;;;;;;;22.80;82.70;;;;;;4923533;29;19931;-82
2022/06/05 06:20:14;;;;;;;;;;;22.90;82.20;;;;;;4917923;29;19927;-86
2022/06/05 06:22:41;;;;;;;;;;;23.00;81.80;;;;;;4928270;29;20399;-79
2022/06/05 06:25:08;;;;;;;;;;;23.10;81.50;;;;;;4929960;29;19951;-79
2022/06/05 06:27:35;;;;;;;;;;;23.20;80.80;;;;;;4918356;29;19975;-79
2022/06/05 06:30:09;;;;;;;;;;;23.30;80.60;;;;;;4926264;29;19934;-79
2022/06/05 06:32:36;;;;;;;;;;;23.40;81.00;;;;;;4918496;29;19927;-79
2022/06/05 06:35:03;;;;;;;;;;;23.60;79.60;;;;;;4920693;29;19928;-80
2022/06/05 06:37:30;;;;;;;;;;;23.70;79.60;;;;;;4917859;29;19998;-79
2022/06/05 06:39:56;;;;;;;;;;;23.80;79.50;;;;;;4924669;29;19975;-80
2022/06/05 06:42:23;;;;;;;;;;;23.90;78.50;;;;;;4909554;29;19975;-80
2022/06/05 06:44:50;;;;;;;;;;;24.00;77.80;;;;;;4914557;29;20277;-79
2022/06/05 06:47:17;;;;;;;;;;;24.10;75.70;;;;;;4925236;29;19932;-82
2022/06/05 06:49:44;;;;;;;;;;;24.20;74.90;;;;;;4919770;29;20352;-86
2022/06/05 06:52:10;;;;;;;;;;;24.30;74.00;;;;;;4916000;29;19928;-83
2022/06/05 06:54:37;;;;;;;;;;;24.40;73.80;;;;;;4916978;29;19931;-82
2022/06/05 06:57:04;;;;;;;;;;;24.50;74.00;;;;;;4918346;29;19927;-83
2022/06/05 06:59:31;;;;;;;;;;;24.60;73.70;;;;;;4916036;29;19952;-86
2022/06/05 07:01:58;;;;;;;;;;;24.70;73.60;;;;;;4917187;29;19979;-80
2022/06/05 07:04:25;;;;;;;;;;;24.90;73.40;;;;;;4917267;29;19927;-80
2022/06/05 07:06:51;;;;;;;;;;;25.00;73.00;;;;;;4933929;29;19927;-82
2022/06/05 07:09:19;;;;;;;;;;;25.10;72.30;;;;;;4936076;29;19998;-80
2022/06/05 07:11:46;;;;;;;;;;;25.20;72.10;;;;;;4917345;29;19938;-79
2022/06/05 07:14:12;;;;;;;;;;;25.40;71.60;;;;;;4915088;29;19980;-84
2022/06/05 07:16:39;;;;;;;;;;;25.50;70.90;;;;;;4925909;29;20298;-80
2022/06/05 07:19:06;;;;;;;;;;;25.60;70.20;;;;;;4920248;29;19927;-82
2022/06/05 07:21:33;;;;;;;;;;;25.70;69.50;;;;;;4917451;29;19970;-80
2022/06/05 07:23:59;;;;;;;;;;;25.80;68.00;;;;;;4928194;29;19927;-83
2022/06/05 07:26:28;;;;;;;;;;;25.90;67.00;;;;;;4924702;29;20288;-84
2022/06/05 07:28:56;;;;;;;;;;;26.00;66.90;;;;;;4916682;29;19927;-81
2022/06/05 07:31:23;;;;;;;;;;;26.20;66.70;;;;;;4918068;29;19938;-85
2022/06/05 07:33:51;;;;;;;;;;;26.30;65.50;;;;;;4916382;29;20332;-82
2022/06/05 07:36:20;;;;;;;;;;;26.40;66.10;;;;;;4917009;29;19952;-80
2022/06/05 07:38:50;;;;;;;;;;;26.50;66.70;;;;;;4910477;29;21484;-79
2022/06/05 07:41:23;;;;;;;;;;;26.60;65.20;;;;;;4923383;29;19931;-83
2022/06/05 07:43:49;;;;;;;;;;;26.70;65.20;;;;;;4922815;29;19934;-80
2022/06/05 07:46:16;;;;;;;;;;;26.80;64.90;;;;;;4931361;29;19927;-80
2022/06/05 07:48:44;;;;;;;;;;;27.00;63.60;;;;;;4917723;29;19938;-80
2022/06/05 07:56:44;;;;;;;;;;;27.30;63.10;;;;;;4917508;29;19938;-83
2022/06/05 07:59:11;;;;;;;;;;;27.40;62.40;;;;;;4925448;29;19935;-80
2022/06/05 08:01:53;;;;;;;;;;;27.50;62.00;;;;;;4919783;29;19931;-80
2022/06/05 08:04:20;;;;;;;;;;;27.60;62.90;;;;;;4912241;29;20022;-83
2022/06/05 08:06:51;;;;;;;;;;;27.70;61.70;;;;;;4943392;29;19938;-81
2022/06/05 08:09:18;;;;;;;;;;;27.80;62.50;;;;;;4929694;29;20380;-80
2022/06/05 08:11:45;;;;;;;;;;;27.80;61.70;;;;;;4913913;29;19927;-81
2022/06/05 08:14:14;;;;;;;;;;;28.00;61.10;;;;;;4930828;29;20422;-83
2022/06/05 08:16:43;;;;;;;;;;;28.00;60.70;;;;;;4916481;29;19927;-80
2022/06/05 08:19:12;;;;;;;;;;;28.10;59.40;;;;;;4920505;29;19927;-80
2022/06/05 08:21:39;;;;;;;;;;;28.10;59.00;;;;;;4926018;29;19927;-80
2022/06/05 08:24:06;;;;;;;;;;;28.10;58.60;;;;;;4927304;29;20343;-83
2022/06/05 08:26:33;;;;;;;;;;;28.10;57.90;;;;;;4920740;29;19931;-84
2022/06/05 08:29:00;;;;;;;;;;;28.10;58.70;;;;;;4921362;29;19987;-83
2022/06/05 08:31:29;;;;;;;;;;;28.20;58.40;;;;;;4920885;29;19931;-81
2022/06/05 08:33:57;;;;;;;;;;;28.30;57.90;;;;;;4921330;29;19966;-84
2022/06/05 08:36:24;;;;;;;;;;;28.40;57.80;;;;;;4923182;29;19935;-81
2022/06/05 08:41:39;;;;;;;;;;;28.50;55.40;;;;;;4916613;29;19933;-83
2022/06/05 08:44:25;;;;;;;;;;;28.40;56.60;;;;;;4920015;29;20287;-84
2022/06/05 08:47:01;;;;;;;;;;;28.30;56.60;;;;;;4920009;29;19978;-82
2022/06/05 08:49:46;;;;;;;;;;;28.30;57.70;;;;;;4917038;29;19928;-81
2022/06/05 08:52:18;;;;;;;;;;;28.20;58.70;;;;;;4929641;29;20387;-80
2022/06/05 08:55:03;;;;;;;;;;;28.20;58.30;;;;;;4919519;29;19951;-84
2022/06/05 08:57:39;;;;;;;;;;;28.30;57.90;;;;;;4916125;29;19967;-81
2022/06/05 09:00:20;;;;;;;;;;;28.30;57.30;;;;;;4916976;29;19928;-81
2022/06/05 09:02:58;;;;;;;;;;;28.40;57.70;;;;;;4913308;29;19931;-81
2022/06/05 09:05:31;;;;;;;;;;;28.50;57.80;;;;;;4926472;29;20302;-80
2022/06/05 09:08:01;;;;;;;;;;;28.60;57.00;;;;;;4924316;29;19935;-81
2022/06/05 09:10:28;;;;;;;;;;;28.60;55.30;;;;;;4916737;29;20270;-84
2022/06/05 09:12:57;;;;;;;;;;;28.60;56.50;;;;;;4931501;29;20368;-81
2022/06/05 09:15:33;;;;;;;;;;;28.60;56.90;;;;;;4915636;29;19961;-79
2022/06/05 09:18:01;;;;;;;;;;;28.60;56.90;;;;;;4933586;29;19934;-80
2022/06/05 09:20:36;;;;;;;;;;;28.70;57.60;;;;;;4918595;29;19930;-84
2022/06/05 09:23:06;;;;;;;;;;;28.80;58.10;;;;;;4934495;29;19983;-82
2022/06/05 09:25:57;;;;;;;;;;;29.00;57.40;;;;;;4934009;29;20384;-84
2022/06/05 09:28:44;;;;;;;;;;;29.00;58.00;;;;;;4918070;29;19931;-83
2022/06/05 09:31:44;;;;;;;;;;;29.00;58.60;;;;;;4905373;29;19934;-80
2022/06/05 09:34:17;;;;;;;;;;;28.90;59.30;;;;;;4887756;29;19927;-80
2022/06/05 09:36:48;;;;;;;;;;;28.60;59.20;;;;;;4920557;29;19931;-85
2022/06/05 09:39:25;;;;;;;;;;;28.60;60.10;;;;;;4917900;29;19931;-83
2022/06/05 09:42:04;;;;;;;;;;;28.50;59.60;;;;;;4912263;29;19931;-85
2022/06/05 09:44:51;;;;;;;;;;;28.40;60.50;;;;;;4917892;29;19927;-85
2022/06/05 09:47:23;;;;;;;;;;;28.20;59.90;;;;;;4918102;29;19963;-82
2022/06/05 09:49:51;;;;;;;;;;;28.00;61.00;;;;;;4915038;29;19927;-85
2022/06/05 09:52:20;;;;;;;;;;;27.90;60.80;;;;;;4931607;29;19978;-83
2022/06/05 09:54:49;;;;;;;;;;;27.80;61.60;;;;;;4917453;29;19931;-80
2022/06/05 10:00:24;;;;;;;;;;;28.10;61.10;;;;;;4921194;29;19928;-80
2022/06/05 10:02:51;;;;;;;;;;;28.50;60.90;;;;;;4907172;29;20403;-83
2022/06/05 10:05:23;;;;;;;;;;;28.90;59.70;;;;;;4914963;29;20014;-84
2022/06/05 10:07:53;;;;;;;;;;;29.10;58.90;;;;;;4923340;29;19951;-86
2022/06/05 10:10:24;;;;;;;;;;;29.30;58.90;;;;;;4918636;29;20454;-84
2022/06/05 10:12:54;;;;;;;;;;;29.50;57.70;;;;;;4917224;29;19939;-80
2022/06/05 10:15:26;;;;;;;;;;;29.50;57.70;;;;;;4927287;29;19931;-85
2022/06/05 10:17:57;;;;;;;;;;;29.70;57.20;;;;;;4923161;29;20361;-84
2022/06/05 10:20:39;;;;;;;;;;;29.80;56.90;;;;;;4916829;29;19931;-80
2022/06/05 10:23:13;;;;;;;;;;;29.80;56.20;;;;;;4933698;29;19930;-83
2022/06/05 10:25:59;;;;;;;;;;;29.80;56.10;;;;;;4920412;29;20296;-80
2022/06/05 10:28:28;;;;;;;;;;;29.80;55.20;;;;;;4917702;29;19954;-80
2022/06/05 10:30:58;;;;;;;;;;;29.50;55.00;;;;;;4917268;29;20343;-84
2022/06/05 10:33:31;;;;;;;;;;;29.30;55.70;;;;;;4918613;29;20396;-83
2022/06/05 10:36:32;;;;;;;;;;;29.10;55.90;;;;;;4918526;29;19978;-81
2022/06/05 10:39:09;;;;;;;;;;;29.00;57.80;;;;;;4877306;29;19928;-81
2022/06/05 10:41:39;;;;;;;;;;;28.90;57.40;;;;;;4914317;29;19994;-79
2022/06/05 10:44:10;;;;;;;;;;;28.80;57.60;;;;;;4922808;29;19928;-81
2022/06/05 10:46:39;;;;;;;;;;;28.80;57.90;;;;;;4930090;29;19955;-83
2022/06/05 10:49:32;;;;;;;;;;;28.80;57.30;;;;;;4913353;29;20398;-82
2022/06/05 10:52:08;;;;;;;;;;;28.90;57.60;;;;;;4914954;29;19927;-79
2022/06/05 10:54:41;;;;;;;;;;;29.10;57.20;;;;;;4919407;29;19975;-83
2022/06/05 10:57:11;;;;;;;;;;;29.30;57.10;;;;;;4914327;29;19931;-82
2022/06/05 10:59:55;;;;;;;;;;;29.50;55.50;;;;;;4915527;29;19981;-82
2022/06/05 11:02:34;;;;;;;;;;;29.70;55.80;;;;;;4910405;29;19954;-79
2022/06/05 11:05:20;;;;;;;;;;;29.80;56.00;;;;;;4933644;29;19974;-83
2022/06/05 11:07:56;;;;;;;;;;;30.00;54.40;;;;;;4920261;29;19935;-80
2022/06/05 11:13:39;;;;;;;;;;;30.00;54.80;;;;;;4919595;29;19939;-82
2022/06/05 11:13:40;;;;;;;;;;;30.00;53.50;;;;;;4919302;29;19927;-83
2022/06/05 11:16:17;;;;;;;;;;;30.00;53.90;;;;;;4913477;29;19974;-83
2022/06/05 11:18:44;;;;;;;;;;;29.80;53.20;;;;;;4914194;29;19939;-80
2022/06/05 11:21:13;;;;;;;;;;;29.70;54.30;;;;;;4916010;29;20431;-79
2022/06/05 11:23:49;;;;;;;;;;;29.50;54.20;;;;;;4917609;29;19935;-79
2022/06/05 11:26:21;;;;;;;;;;;29.30;54.50;;;;;;4905541;29;20354;-82
2022/06/05 11:29:07;;;;;;;;;;;29.20;55.80;;;;;;4913850;29;20337;-79
2022/06/05 11:31:53;;;;;;;;;;;29.10;55.90;;;;;;4915598;29;19927;-82
2022/06/05 11:34:27;;;;;;;;;;;29.10;56.10;;;;;;4916505;29;19990;-80
2022/06/05 11:36:55;;;;;;;;;;;29.10;55.50;;;;;;4912520;29;20456;-79
2022/06/05 11:39:25;;;;;;;;;;;29.00;54.60;;;;;;4917044;29;20450;-79
2022/06/05 11:41:55;;;;;;;;;;;28.90;54.80;;;;;;4916179;29;20010;-80
2022/06/05 11:44:26;;;;;;;;;;;28.90;55.10;;;;;;4915388;29;20337;-81
2022/06/05 11:47:00;;;;;;;;;;;29.00;54.60;;;;;;4917091;29;19928;-80
2022/06/05 11:49:49;;;;;;;;;;;29.30;54.30;;;;;;4928740;29;20381;-81
2022/06/05 11:52:41;;;;;;;;;;;29.50;54.60;;;;;;4914155;29;19927;-78
2022/06/05 11:55:11;;;;;;;;;;;29.50;51.50;;;;;;4919692;29;19935;-79
2022/06/05 11:57:46;;;;;;;;;;;29.40;52.70;;;;;;4924491;29;19943;-80
2022/06/05 12:00:20;;;;;;;;;;;29.30;52.90;;;;;;4920339;29;19987;-83
2022/06/05 12:02:51;;;;;;;;;;;29.20;53.20;;;;;;4920831;29;20397;-82
2022/06/05 12:05:22;;;;;;;;;;;28.90;52.60;;;;;;4927989;29;19987;-79
2022/06/05 12:07:49;;;;;;;;;;;28.80;53.80;;;;;;4926023;29;19974;-82
2022/06/05 12:10:28;;;;;;;;;;;28.70;54.70;;;;;;4919165;29;19932;-82
2022/06/05 12:13:03;;;;;;;;;;;28.60;54.20;;;;;;4919354;29;19927;-80
2022/06/05 12:15:56;;;;;;;;;;;28.60;54.80;;;;;;4932754;29;19931;-84
2022/06/05 12:18:29;;;;;;;;;;;28.50;55.30;;;;;;4917443;29;19995;-81
2022/06/05 12:21:00;;;;;;;;;;;28.50;56.00;;;;;;4918876;29;19927;-81
2022/06/05 12:23:36;;;;;;;;;;;28.30;57.40;;;;;;4919261;29;19954;-83
2022/06/05 12:26:03;;;;;;;;;;;27.90;59.30;;;;;;4919251;29;19928;-83
2022/06/05 12:28:56;;;;;;;;;;;27.50;63.00;;;;;;4918932;29;19975;-85
2022/06/05 12:31:26;;;;;;;;;;;27.00;66.50;;;;;;4888256;29;19962;-88
2022/06/05 12:33:58;;;;;;;;;;;26.20;69.00;;;;;;4919250;29;19935;-82
2022/06/05 12:36:26;;;;;;;;;;;25.50;67.60;;;;;;4920056;29;19931;-82
2022/06/05 12:38:57;;;;;;;;;;;24.80;66.40;;;;;;4922477;29;19935;-87
2022/06/05 12:41:29;;;;;;;;;;;24.20;66.40;;;;;;4916025;29;19970;-82
2022/06/05 12:44:00;;;;;;;;;;;23.70;68.50;;;;;;4920157;29;19927;-86
2022/06/05 12:46:40;;;;;;;;;;;23.30;70.10;;;;;;4919511;29;19978;-82
2022/06/05 12:49:25;;;;;;;;;;;22.90;72.90;;;;;;4921008;29;19927;-89
2022/06/05 12:52:01;;;;;;;;;;;22.70;73.80;;;;;;4918938;29;20392;-84
2022/06/05 12:54:42;;;;;;;;;;;22.60;75.50;;;;;;4919171;29;19959;-82
2022/06/05 12:57:31;;;;;;;;;;;22.50;76.30;;;;;;4918614;29;19935;-88
2022/06/05 13:00:27;;;;;;;;;;;22.30;76.80;;;;;;4918995;29;19995;-81
2022/06/05 13:02:57;;;;;;;;;;;22.40;77.60;;;;;;4913554;29;19974;-89
2022/06/05 13:05:42;;;;;;;;;;;22.70;82.00;;;;;;4918819;29;20018;-87
2022/06/05 13:08:13;;;;;;;;;;;22.90;81.40;;;;;;4916349;29;19927;-86
2022/06/05 13:10:42;;;;;;;;;;;23.10;79.60;;;;;;4919196;29;19978;-82
2022/06/05 13:13:09;;;;;;;;;;;23.20;79.70;;;;;;4920589;29;19927;-83
2022/06/05 13:16:14;;;;;;;;;;;23.40;78.70;;;;;;4915135;29;19927;-82
2022/06/05 13:18:59;;;;;;;;;;;23.60;78.10;;;;;;4842423;29;19929;-85
2022/06/05 13:21:40;;;;;;;;;;;24.20;78.70;;;;;;4826615;29;19935;-83
2022/06/05 13:24:36;;;;;;;;;;;24.90;78.40;;;;;;4885577;29;19938;-81
2022/06/05 13:27:09;;;;;;;;;;;25.60;75.60;;;;;;4893972;29;20388;-83
2022/06/05 13:29:47;;;;;;;;;;;26.20;74.70;;;;;;4917929;29;19927;-81
2022/06/05 13:32:14;;;;;;;;;;;26.50;73.20;;;;;;4917684;29;19927;-84
2022/06/05 13:35:20;;;;;;;;;;;26.70;71.00;;;;;;4918533;29;20014;-83
2022/06/05 13:37:47;;;;;;;;;;;26.50;71.00;;;;;;4917777;29;19938;-84
2022/06/05 13:40:16;;;;;;;;;;;26.40;71.70;;;;;;4926760;29;19931;-81
2022/06/05 13:42:47;;;;;;;;;;;26.30;71.40;;;;;;4918331;29;19939;-81
2022/06/05 13:45:20;;;;;;;;;;;26.10;72.40;;;;;;4916678;29;19927;-81
2022/06/05 13:47:52;;;;;;;;;;;25.90;72.50;;;;;;4930194;29;20276;-83
2022/06/05 13:50:26;;;;;;;;;;;25.80;72.90;;;;;;4918826;29;19938;-80
2022/06/05 13:53:00;;;;;;;;;;;25.60;73.00;;;;;;4913691;29;20351;-85
2022/06/05 13:55:34;;;;;;;;;;;25.30;72.50;;;;;;4918141;29;19927;-80
2022/06/05 13:58:16;;;;;;;;;;;25.00;72.80;;;;;;4917568;29;19931;-83
2022/06/05 14:00:56;;;;;;;;;;;24.90;73.40;;;;;;4916460;29;20435;-83
2022/06/05 14:03:55;;;;;;;;;;;24.80;74.20;;;;;;4909070;29;19935;-80
2022/06/05 14:06:34;;;;;;;;;;;24.80;74.30;;;;;;4896425;29;19927;-81
2022/06/05 14:09:04;;;;;;;;;;;24.70;75.50;;;;;;4918278;29;19927;-83
2022/06/05 14:11:30;;;;;;;;;;;24.70;76.30;;;;;;4917652;29;19994;-80
2022/06/05 14:13:57;;;;;;;;;;;24.80;76.90;;;;;;4914651;29;19970;-86
2022/06/05 14:16:31;;;;;;;;;;;25.10;76.60;;;;;;4917419;29;19983;-81
2022/06/05 14:18:59;;;;;;;;;;;25.50;75.20;;;;;;4914843;29;19963;-81
2022/06/05 14:21:29;;;;;;;;;;;25.70;74.00;;;;;;4925456;29;19930;-84
2022/06/05 14:24:26;;;;;;;;;;;26.00;73.60;;;;;;4918296;29;20367;-84
2022/06/05 14:26:55;;;;;;;;;;;26.40;72.50;;;;;;4913270;29;19992;-85
2022/06/05 14:29:39;;;;;;;;;;;26.80;71.20;;;;;;4928091;29;20396;-82
2022/06/05 14:32:08;;;;;;;;;;;27.00;69.80;;;;;;4930079;29;19927;-86
2022/06/05 14:34:37;;;;;;;;;;;27.10;69.10;;;;;;4914037;29;19931;-86
2022/06/05 14:37:11;;;;;;;;;;;27.00;69.10;;;;;;4915446;29;19955;-83
2022/06/05 14:39:41;;;;;;;;;;;26.90;69.50;;;;;;4932311;29;19927;-81
2022/06/05 14:42:17;;;;;;;;;;;26.90;69.20;;;;;;4913156;29;19931;-80
2022/06/05 14:44:46;;;;;;;;;;;26.80;69.20;;;;;;4917475;29;19934;-84
2022/06/05 14:47:16;;;;;;;;;;;26.70;69.40;;;;;;4910526;29;19932;-84
2022/06/05 14:49:52;;;;;;;;;;;26.60;69.00;;;;;;4911990;29;20340;-81
2022/06/05 14:52:32;;;;;;;;;;;26.60;69.50;;;;;;4917104;29;19962;-84
2022/06/05 14:57:52;;;;;;;;;;;26.60;69.60;;;;;;4912688;29;20356;-81
2022/06/05 15:00:29;;;;;;;;;;;26.60;69.80;;;;;;4918056;29;19931;-80
2022/06/05 15:02:59;;;;;;;;;;;26.80;69.80;;;;;;4913899;29;20332;-80
2022/06/05 15:05:33;;;;;;;;;;;26.90;69.70;;;;;;4920619;29;19979;-80